sensor_id;sensor_type;location;lat;lon;timestamp;P1;durP1;ratioP1;P2;durP2;ratioP2
78346;SDS011;67803;41.330;69.282;2024-03-23T00:52:35;10.95;;;5.78;;
78346;SDS011;67803;41.330;69.282;2024-03-23T00:55:06;10.15;;;4.28;;
78346;SDS011;67803;41.330;69.282;2024-03-23T00:57:37;11.10;;;4.80;;
78346;SDS011;67803;41.330;69.282;2024-03-23T01:00:08;8.98;;;4.70;;
78346;SDS011;67803;41.330;69.282;2024-03-23T01:02:40;8.88;;;4.65;;
78346;SDS011;67803;41.330;69.282;2024-03-23T01:05:11;8.20;;;4.50;;
78346;SDS011;67803;41.330;69.282;2024-03-23T01:07:41;9.07;;;4.43;;
78346;SDS011;67803;41.330;69.282;2024-03-23T01:10:12;10.35;;;4.75;;
78346;SDS011;67803;41.330;69.282;2024-03-23T01:12:42;8.80;;;4.40;;
78346;SDS011;67803;41.330;69.282;2024-03-23T01:15:13;7.45;;;4.93;;
78346;SDS011;67803;41.330;69.282;2024-03-23T01:17:44;7.22;;;4.45;;
78346;SDS011;67803;41.330;69.282;2024-03-23T01:20:14;8.48;;;3.85;;
78346;SDS011;67803;41.330;69.282;2024-03-23T01:22:45;9.70;;;4.55;;
78346;SDS011;67803;41.330;69.282;2024-03-23T01:25:15;8.55;;;3.97;;
78346;SDS011;67803;41.330;69.282;2024-03-23T01:27:46;9.43;;;4.57;;
78346;SDS011;67803;41.330;69.282;2024-03-23T01:30:16;7.28;;;4.13;;
78346;SDS011;67803;41.330;69.282;2024-03-23T01:32:47;7.68;;;3.40;;
78346;SDS011;67803;41.330;69.282;2024-03-23T01:35:19;8.25;;;3.47;;
78346;SDS011;67803;41.330;69.282;2024-03-23T01:37:50;6.40;;;2.95;;
78346;SDS011;67803;41.330;69.282;2024-03-23T01:40:20;6.25;;;3.33;;
78346;SDS011;67803;41.330;69.282;2024-03-23T01:42:57;7.00;;;3.78;;
78346;SDS011;67803;41.330;69.282;2024-03-23T01:45:28;4.78;;;2.75;;
78346;SDS011;67803;41.330;69.282;2024-03-23T01:47:59;5.85;;;3.53;;
78346;SDS011;67803;41.330;69.282;2024-03-23T01:50:31;6.72;;;3.20;;
78346;SDS011;67803;41.330;69.282;2024-03-23T01:53:04;7.43;;;2.92;;
78346;SDS011;67803;41.330;69.282;2024-03-23T01:55:36;6.80;;;3.15;;
78346;SDS011;67803;41.330;69.282;2024-03-23T01:58:07;4.68;;;2.97;;
78346;SDS011;67803;41.330;69.282;2024-03-23T02:00:37;5.93;;;3.33;;
78346;SDS011;67803;41.330;69.282;2024-03-23T02:03:24;7.43;;;3.58;;
78346;SDS011;67803;41.330;69.282;2024-03-23T02:05:55;4.70;;;2.80;;
78346;SDS011;67803;41.330;69.282;2024-03-23T02:08:26;6.35;;;3.10;;
78346;SDS011;67803;41.330;69.282;2024-03-23T02:10:57;5.72;;;3.03;;
78346;SDS011;67803;41.330;69.282;2024-03-23T02:13:28;4.18;;;2.67;;
78346;SDS011;67803;41.330;69.282;2024-03-23T02:15:59;4.88;;;2.63;;
78346;SDS011;67803;41.330;69.282;2024-03-23T02:18:30;8.85;;;3.33;;
78346;SDS011;67803;41.330;69.282;2024-03-23T02:21:00;6.40;;;3.03;;
78346;SDS011;67803;41.330;69.282;2024-03-23T02:23:31;5.32;;;2.88;;
78346;SDS011;67803;41.330;69.282;2024-03-23T02:26:01;5.20;;;2.95;;
78346;SDS011;67803;41.330;69.282;2024-03-23T02:28:32;6.85;;;3.00;;
78346;SDS011;67803;41.330;69.282;2024-03-23T02:31:03;6.10;;;2.95;;
78346;SDS011;67803;41.330;69.282;2024-03-23T02:33:34;5.72;;;2.72;;
78346;SDS011;67803;41.330;69.282;2024-03-23T02:36:08;6.20;;;2.75;;
78346;SDS011;67803;41.330;69.282;2024-03-23T02:38:38;5.95;;;3.00;;
78346;SDS011;67803;41.330;69.282;2024-03-23T02:41:09;4.65;;;2.90;;
78346;SDS011;67803;41.330;69.282;2024-03-23T02:43:40;4.82;;;2.60;;
78346;SDS011;67803;41.330;69.282;2024-03-23T02:46:10;6.28;;;3.15;;
78346;SDS011;67803;41.330;69.282;2024-03-23T02:48:41;5.95;;;2.90;;
78346;SDS011;67803;41.330;69.282;2024-03-23T02:51:11;5.75;;;2.58;;
78346;SDS011;67803;41.330;69.282;2024-03-23T02:53:42;6.28;;;2.97;;
78346;SDS011;67803;41.330;69.282;2024-03-23T02:56:12;4.22;;;2.95;;
78346;SDS011;67803;41.330;69.282;2024-03-23T02:58:46;4.97;;;2.38;;
78346;SDS011;67803;41.330;69.282;2024-03-23T03:01:16;3.65;;;2.20;;
78346;SDS011;67803;41.330;69.282;2024-03-23T03:03:47;5.28;;;2.95;;
78346;SDS011;67803;41.330;69.282;2024-03-23T03:06:25;9.70;;;2.83;;
78346;SDS011;67803;41.330;69.282;2024-03-23T03:08:55;5.80;;;2.25;;
78346;SDS011;67803;41.330;69.282;2024-03-23T03:11:26;5.03;;;2.30;;
78346;SDS011;67803;41.330;69.282;2024-03-23T03:13:56;4.57;;;2.30;;
78346;SDS011;67803;41.330;69.282;2024-03-23T03:16:30;5.03;;;1.88;;
78346;SDS011;67803;41.330;69.282;2024-03-23T03:19:00;5.43;;;2.42;;
78346;SDS011;67803;41.330;69.282;2024-03-23T03:21:31;5.38;;;2.40;;
78346;SDS011;67803;41.330;69.282;2024-03-23T03:24:02;6.88;;;2.80;;
78346;SDS011;67803;41.330;69.282;2024-03-23T03:26:33;8.70;;;2.60;;
78346;SDS011;67803;41.330;69.282;2024-03-23T03:29:03;6.95;;;2.92;;
78346;SDS011;67803;41.330;69.282;2024-03-23T03:31:34;6.80;;;2.90;;
78346;SDS011;67803;41.330;69.282;2024-03-23T03:34:05;8.23;;;3.20;;
78346;SDS011;67803;41.330;69.282;2024-03-23T03:36:35;13.85;;;4.40;;
78346;SDS011;67803;41.330;69.282;2024-03-23T03:39:06;8.95;;;2.85;;
78346;SDS011;67803;41.330;69.282;2024-03-23T03:41:37;5.57;;;2.42;;
78346;SDS011;67803;41.330;69.282;2024-03-23T03:44:07;7.03;;;2.58;;
78346;SDS011;67803;41.330;69.282;2024-03-23T03:46:38;5.85;;;2.38;;
78346;SDS011;67803;41.330;69.282;2024-03-23T03:49:08;6.28;;;2.05;;
78346;SDS011;67803;41.330;69.282;2024-03-23T03:51:39;9.52;;;2.72;;
78346;SDS011;67803;41.330;69.282;2024-03-23T03:54:10;5.40;;;2.10;;
78346;SDS011;67803;41.330;69.282;2024-03-23T03:56:40;5.90;;;2.03;;
78346;SDS011;67803;41.330;69.282;2024-03-23T03:59:11;5.35;;;1.95;;
78346;SDS011;67803;41.330;69.282;2024-03-23T04:01:41;5.35;;;1.80;;
78346;SDS011;67803;41.330;69.282;2024-03-23T04:04:13;5.47;;;2.25;;
78346;SDS011;67803;41.330;69.282;2024-03-23T04:06:44;6.13;;;1.90;;
78346;SDS011;67803;41.330;69.282;2024-03-23T04:09:14;3.95;;;1.70;;
78346;SDS011;67803;41.330;69.282;2024-03-23T04:11:45;3.78;;;1.70;;
78346;SDS011;67803;41.330;69.282;2024-03-23T04:14:15;4.43;;;1.77;;
78346;SDS011;67803;41.330;69.282;2024-03-23T04:16:46;5.82;;;1.67;;
78346;SDS011;67803;41.330;69.282;2024-03-23T04:19:17;5.78;;;1.60;;
78346;SDS011;67803;41.330;69.282;2024-03-23T04:21:47;7.55;;;3.58;;
78346;SDS011;67803;41.330;69.282;2024-03-23T04:24:18;4.38;;;1.63;;
78346;SDS011;67803;41.330;69.282;2024-03-23T04:26:51;5.65;;;2.25;;
78346;SDS011;67803;41.330;69.282;2024-03-23T04:29:23;4.07;;;1.98;;
78346;SDS011;67803;41.330;69.282;2024-03-23T04:31:53;4.13;;;1.92;;
78346;SDS011;67803;41.330;69.282;2024-03-23T04:34:25;7.40;;;2.10;;
78346;SDS011;67803;41.330;69.282;2024-03-23T04:36:56;4.88;;;1.95;;
78346;SDS011;67803;41.330;69.282;2024-03-23T04:39:26;5.00;;;1.80;;
78346;SDS011;67803;41.330;69.282;2024-03-23T04:41:57;6.45;;;2.03;;
78346;SDS011;67803;41.330;69.282;2024-03-23T04:44:27;8.27;;;1.83;;
78346;SDS011;67803;41.330;69.282;2024-03-23T04:46:58;7.90;;;2.65;;
78346;SDS011;67803;41.330;69.282;2024-03-23T04:49:28;7.25;;;2.17;;
78346;SDS011;67803;41.330;69.282;2024-03-23T04:51:59;5.15;;;2.00;;
78346;SDS011;67803;41.330;69.282;2024-03-23T04:54:29;7.95;;;2.00;;
78346;SDS011;67803;41.330;69.282;2024-03-23T04:57:00;8.93;;;2.50;;
78346;SDS011;67803;41.330;69.282;2024-03-23T04:59:31;7.55;;;2.22;;
78346;SDS011;67803;41.330;69.282;2024-03-23T05:02:01;14.65;;;2.83;;
78346;SDS011;67803;41.330;69.282;2024-03-23T05:04:33;8.93;;;2.45;;
78346;SDS011;67803;41.330;69.282;2024-03-23T05:07:03;10.35;;;2.35;;
78346;SDS011;67803;41.330;69.282;2024-03-23T05:09:34;5.50;;;2.30;;
78346;SDS011;67803;41.330;69.282;2024-03-23T05:12:05;6.78;;;1.98;;
78346;SDS011;67803;41.330;69.282;2024-03-23T05:14:36;9.32;;;2.40;;
78346;SDS011;67803;41.330;69.282;2024-03-23T05:17:06;4.35;;;2.20;;
78346;SDS011;67803;41.330;69.282;2024-03-23T05:19:37;5.13;;;2.00;;
78346;SDS011;67803;41.330;69.282;2024-03-23T05:22:08;6.93;;;2.55;;
78346;SDS011;67803;41.330;69.282;2024-03-23T05:24:38;4.95;;;1.92;;
78346;SDS011;67803;41.330;69.282;2024-03-23T05:27:09;6.45;;;1.88;;
78346;SDS011;67803;41.330;69.282;2024-03-23T05:29:39;7.22;;;1.70;;
78346;SDS011;67803;41.330;69.282;2024-03-23T05:32:10;7.18;;;2.03;;
78346;SDS011;67803;41.330;69.282;2024-03-23T05:34:40;5.20;;;2.28;;
78346;SDS011;67803;41.330;69.282;2024-03-23T05:37:11;6.90;;;2.38;;
78346;SDS011;67803;41.330;69.282;2024-03-23T05:39:42;8.25;;;2.67;;
78346;SDS011;67803;41.330;69.282;2024-03-23T05:42:12;8.82;;;2.80;;
78346;SDS011;67803;41.330;69.282;2024-03-23T05:44:46;5.63;;;2.22;;
78346;SDS011;67803;41.330;69.282;2024-03-23T05:47:16;9.85;;;3.65;;
78346;SDS011;67803;41.330;69.282;2024-03-23T05:49:47;10.50;;;2.60;;
78346;SDS011;67803;41.330;69.282;2024-03-23T05:52:17;14.63;;;2.90;;
78346;SDS011;67803;41.330;69.282;2024-03-23T05:54:48;8.68;;;2.63;;
78346;SDS011;67803;41.330;69.282;2024-03-23T05:57:18;7.68;;;2.00;;
78346;SDS011;67803;41.330;69.282;2024-03-23T05:59:49;6.60;;;2.50;;
78346;SDS011;67803;41.330;69.282;2024-03-23T06:02:20;3.85;;;2.50;;
78346;SDS011;67803;41.330;69.282;2024-03-23T06:04:50;4.68;;;2.05;;
78346;SDS011;67803;41.330;69.282;2024-03-23T06:07:21;8.30;;;2.58;;
78346;SDS011;67803;41.330;69.282;2024-03-23T06:09:52;8.38;;;2.67;;
78346;SDS011;67803;41.330;69.282;2024-03-23T06:12:22;6.82;;;2.60;;
78346;SDS011;67803;41.330;69.282;2024-03-23T06:14:53;6.55;;;2.50;;
78346;SDS011;67803;41.330;69.282;2024-03-23T06:17:23;7.85;;;2.70;;
78346;SDS011;67803;41.330;69.282;2024-03-23T06:19:54;9.63;;;3.03;;
78346;SDS011;67803;41.330;69.282;2024-03-23T06:22:24;39.67;;;6.15;;
78346;SDS011;67803;41.330;69.282;2024-03-23T06:24:55;9.98;;;3.00;;
78346;SDS011;67803;41.330;69.282;2024-03-23T06:27:25;11.95;;;2.92;;
78346;SDS011;67803;41.330;69.282;2024-03-23T06:29:56;8.75;;;3.20;;
78346;SDS011;67803;41.330;69.282;2024-03-23T06:32:27;8.07;;;2.28;;
78346;SDS011;67803;41.330;69.282;2024-03-23T06:34:59;10.98;;;3.33;;
78346;SDS011;67803;41.330;69.282;2024-03-23T06:37:29;9.85;;;4.05;;
78346;SDS011;67803;41.330;69.282;2024-03-23T06:40:00;11.20;;;3.60;;
78346;SDS011;67803;41.330;69.282;2024-03-23T06:42:30;13.20;;;4.53;;
78346;SDS011;67803;41.330;69.282;2024-03-23T06:45:01;7.85;;;2.63;;
78346;SDS011;67803;41.330;69.282;2024-03-23T06:47:32;17.15;;;6.05;;
78346;SDS011;67803;41.330;69.282;2024-03-23T06:50:03;6.60;;;3.05;;
78346;SDS011;67803;41.330;69.282;2024-03-23T06:52:33;14.40;;;4.20;;
78346;SDS011;67803;41.330;69.282;2024-03-23T06:55:04;7.22;;;3.20;;
78346;SDS011;67803;41.330;69.282;2024-03-23T06:57:35;6.13;;;2.90;;
78346;SDS011;67803;41.330;69.282;2024-03-23T07:00:06;10.27;;;3.35;;
78346;SDS011;67803;41.330;69.282;2024-03-23T07:02:40;7.38;;;3.05;;
78346;SDS011;67803;41.330;69.282;2024-03-23T07:05:10;6.45;;;2.80;;
78346;SDS011;67803;41.330;69.282;2024-03-23T07:07:41;6.88;;;2.80;;
78346;SDS011;67803;41.330;69.282;2024-03-23T07:10:12;7.13;;;2.70;;
78346;SDS011;67803;41.330;69.282;2024-03-23T07:12:42;8.30;;;3.50;;
78346;SDS011;67803;41.330;69.282;2024-03-23T07:15:13;8.50;;;3.58;;
78346;SDS011;67803;41.330;69.282;2024-03-23T07:17:46;10.10;;;3.20;;
78346;SDS011;67803;41.330;69.282;2024-03-23T07:20:17;6.22;;;3.05;;
78346;SDS011;67803;41.330;69.282;2024-03-23T07:22:48;15.75;;;4.30;;
78346;SDS011;67803;41.330;69.282;2024-03-23T07:25:19;7.35;;;3.28;;
78346;SDS011;67803;41.330;69.282;2024-03-23T07:27:52;10.57;;;3.78;;
78346;SDS011;67803;41.330;69.282;2024-03-23T07:30:23;6.10;;;3.05;;
78346;SDS011;67803;41.330;69.282;2024-03-23T07:32:53;10.32;;;3.38;;
78346;SDS011;67803;41.330;69.282;2024-03-23T07:35:24;9.52;;;3.40;;
78346;SDS011;67803;41.330;69.282;2024-03-23T07:37:55;8.63;;;3.10;;
78346;SDS011;67803;41.330;69.282;2024-03-23T07:40:26;6.78;;;3.10;;
78346;SDS011;67803;41.330;69.282;2024-03-23T07:42:56;9.68;;;2.80;;
78346;SDS011;67803;41.330;69.282;2024-03-23T07:45:27;4.55;;;2.10;;
78346;SDS011;67803;41.330;69.282;2024-03-23T07:47:58;6.15;;;2.58;;
78346;SDS011;67803;41.330;69.282;2024-03-23T07:50:28;8.25;;;2.70;;
78346;SDS011;67803;41.330;69.282;2024-03-23T07:52:59;5.07;;;2.30;;
78346;SDS011;67803;41.330;69.282;2024-03-23T07:55:29;13.05;;;2.45;;
78346;SDS011;67803;41.330;69.282;2024-03-23T07:58:00;5.72;;;2.22;;
78346;SDS011;67803;41.330;69.282;2024-03-23T08:00:30;9.10;;;2.25;;
78346;SDS011;67803;41.330;69.282;2024-03-23T08:03:01;13.27;;;2.80;;
78346;SDS011;67803;41.330;69.282;2024-03-23T08:05:31;7.95;;;2.13;;
78346;SDS011;67803;41.330;69.282;2024-03-23T08:08:02;5.38;;;2.08;;
78346;SDS011;67803;41.330;69.282;2024-03-23T08:10:33;3.55;;;1.90;;
78346;SDS011;67803;41.330;69.282;2024-03-23T08:13:03;6.00;;;1.95;;
78346;SDS011;67803;41.330;69.282;2024-03-23T08:15:34;4.32;;;1.90;;
78346;SDS011;67803;41.330;69.282;2024-03-23T08:18:05;2.63;;;1.90;;
78346;SDS011;67803;41.330;69.282;2024-03-23T08:20:35;5.53;;;1.83;;
78346;SDS011;67803;41.330;69.282;2024-03-23T08:23:06;3.20;;;1.58;;
78346;SDS011;67803;41.330;69.282;2024-03-23T08:25:36;7.75;;;2.70;;
78346;SDS011;67803;41.330;69.282;2024-03-23T08:28:07;6.57;;;2.05;;
78346;SDS011;67803;41.330;69.282;2024-03-23T08:30:37;9.85;;;2.35;;
78346;SDS011;67803;41.330;69.282;2024-03-23T08:33:08;5.15;;;1.92;;
78346;SDS011;67803;41.330;69.282;2024-03-23T08:35:39;6.05;;;1.80;;
78346;SDS011;67803;41.330;69.282;2024-03-23T08:38:09;7.07;;;1.80;;
78346;SDS011;67803;41.330;69.282;2024-03-23T08:40:40;3.58;;;1.52;;
78346;SDS011;67803;41.330;69.282;2024-03-23T08:43:10;7.82;;;2.00;;
78346;SDS011;67803;41.330;69.282;2024-03-23T08:45:41;8.10;;;2.05;;
78346;SDS011;67803;41.330;69.282;2024-03-23T08:48:11;5.68;;;1.83;;
78346;SDS011;67803;41.330;69.282;2024-03-23T08:50:42;5.03;;;1.50;;
78346;SDS011;67803;41.330;69.282;2024-03-23T08:53:13;5.45;;;2.28;;
78346;SDS011;67803;41.330;69.282;2024-03-23T08:55:50;3.58;;;1.58;;
78346;SDS011;67803;41.330;69.282;2024-03-23T08:58:26;4.45;;;1.75;;
78346;SDS011;67803;41.330;69.282;2024-03-23T09:01:02;2.47;;;1.58;;
78346;SDS011;67803;41.330;69.282;2024-03-23T09:03:33;4.38;;;1.95;;
78346;SDS011;67803;41.330;69.282;2024-03-23T09:06:07;6.97;;;2.38;;
78346;SDS011;67803;41.330;69.282;2024-03-23T09:08:38;4.47;;;1.95;;
78346;SDS011;67803;41.330;69.282;2024-03-23T09:11:11;6.43;;;2.20;;
78346;SDS011;67803;41.330;69.282;2024-03-23T09:13:41;4.43;;;1.70;;
78346;SDS011;67803;41.330;69.282;2024-03-23T09:16:12;4.90;;;1.92;;
78346;SDS011;67803;41.330;69.282;2024-03-23T09:18:43;3.90;;;1.52;;
78346;SDS011;67803;41.330;69.282;2024-03-23T09:21:13;4.30;;;2.20;;
78346;SDS011;67803;41.330;69.282;2024-03-23T09:23:45;5.15;;;1.80;;
78346;SDS011;67803;41.330;69.282;2024-03-23T09:26:15;4.97;;;1.70;;
78346;SDS011;67803;41.330;69.282;2024-03-23T09:28:48;5.63;;;1.95;;
78346;SDS011;67803;41.330;69.282;2024-03-23T09:31:18;4.90;;;1.80;;
78346;SDS011;67803;41.330;69.282;2024-03-23T09:33:49;3.97;;;1.85;;
78346;SDS011;67803;41.330;69.282;2024-03-23T09:36:20;3.58;;;1.80;;
78346;SDS011;67803;41.330;69.282;2024-03-23T09:38:50;5.95;;;1.77;;
78346;SDS011;67803;41.330;69.282;2024-03-23T09:41:21;7.43;;;1.50;;
78346;SDS011;67803;41.330;69.282;2024-03-23T09:43:52;7.20;;;1.80;;
78346;SDS011;67803;41.330;69.282;2024-03-23T09:46:23;4.75;;;1.58;;
78346;SDS011;67803;41.330;69.282;2024-03-23T09:48:54;6.00;;;1.70;;
78346;SDS011;67803;41.330;69.282;2024-03-23T09:51:26;5.32;;;1.60;;
78346;SDS011;67803;41.330;69.282;2024-03-23T09:53:56;4.88;;;1.80;;
78346;SDS011;67803;41.330;69.282;2024-03-23T09:56:27;7.32;;;2.00;;
78346;SDS011;67803;41.330;69.282;2024-03-23T09:59:01;5.90;;;2.05;;
78346;SDS011;67803;41.330;69.282;2024-03-23T10:01:32;9.63;;;1.90;;
78346;SDS011;67803;41.330;69.282;2024-03-23T10:04:03;22.77;;;3.72;;
78346;SDS011;67803;41.330;69.282;2024-03-23T10:06:34;5.38;;;2.35;;
78346;SDS011;67803;41.330;69.282;2024-03-23T10:09:16;8.20;;;2.65;;
78346;SDS011;67803;41.330;69.282;2024-03-23T10:11:47;5.82;;;1.88;;
78346;SDS011;67803;41.330;69.282;2024-03-23T10:14:38;6.40;;;2.40;;
78346;SDS011;67803;41.330;69.282;2024-03-23T10:17:15;7.57;;;2.05;;
78346;SDS011;67803;41.330;69.282;2024-03-23T10:19:51;5.32;;;2.10;;
78346;SDS011;67803;41.330;69.282;2024-03-23T10:22:22;5.90;;;1.80;;
78346;SDS011;67803;41.330;69.282;2024-03-23T10:24:53;5.53;;;2.58;;
78346;SDS011;67803;41.330;69.282;2024-03-23T10:27:37;7.15;;;2.45;;
78346;SDS011;67803;41.330;69.282;2024-03-23T10:30:11;4.85;;;2.08;;
78346;SDS011;67803;41.330;69.282;2024-03-23T10:37:46;6.20;;;2.20;;
78346;SDS011;67803;41.330;69.282;2024-03-23T10:40:17;12.90;;;3.40;;
78346;SDS011;67803;41.330;69.282;2024-03-23T10:42:48;8.43;;;2.17;;
78346;SDS011;67803;41.330;69.282;2024-03-23T10:45:19;7.20;;;2.88;;
78346;SDS011;67803;41.330;69.282;2024-03-23T10:47:49;7.40;;;2.20;;
78346;SDS011;67803;41.330;69.282;2024-03-23T10:50:20;6.80;;;2.67;;
78346;SDS011;67803;41.330;69.282;2024-03-23T10:52:50;9.20;;;2.95;;
78346;SDS011;67803;41.330;69.282;2024-03-23T10:55:23;11.07;;;2.78;;
78346;SDS011;67803;41.330;69.282;2024-03-23T10:57:54;7.30;;;2.60;;
78346;SDS011;67803;41.330;69.282;2024-03-23T11:00:26;13.30;;;2.70;;
78346;SDS011;67803;41.330;69.282;2024-03-23T11:02:56;8.35;;;2.72;;
78346;SDS011;67803;41.330;69.282;2024-03-23T11:05:29;7.20;;;2.47;;
78346;SDS011;67803;41.330;69.282;2024-03-23T11:08:00;9.30;;;3.47;;
78346;SDS011;67803;41.330;69.282;2024-03-23T11:10:31;12.63;;;3.08;;
78346;SDS011;67803;41.330;69.282;2024-03-23T11:13:23;6.78;;;2.38;;
78346;SDS011;67803;41.330;69.282;2024-03-23T11:15:56;4.50;;;2.50;;
78346;SDS011;67803;41.330;69.282;2024-03-23T11:18:43;8.45;;;3.17;;
78346;SDS011;67803;41.330;69.282;2024-03-23T11:24:20;8.23;;;2.63;;
78346;SDS011;67803;41.330;69.282;2024-03-23T11:26:51;4.68;;;2.30;;
78346;SDS011;67803;41.330;69.282;2024-03-23T11:29:21;13.85;;;3.45;;
78346;SDS011;67803;41.330;69.282;2024-03-23T11:31:52;12.48;;;5.25;;
78346;SDS011;67803;41.330;69.282;2024-03-23T11:34:23;7.05;;;2.85;;
78346;SDS011;67803;41.330;69.282;2024-03-23T11:37:03;16.25;;;3.25;;
78346;SDS011;67803;41.330;69.282;2024-03-23T11:39:34;10.18;;;3.25;;
78346;SDS011;67803;41.330;69.282;2024-03-23T11:42:05;9.45;;;2.83;;
78346;SDS011;67803;41.330;69.282;2024-03-23T11:44:36;9.90;;;2.90;;
78346;SDS011;67803;41.330;69.282;2024-03-23T11:47:09;13.15;;;3.50;;
78346;SDS011;67803;41.330;69.282;2024-03-23T11:49:41;44.47;;;5.13;;
78346;SDS011;67803;41.330;69.282;2024-03-23T11:52:11;11.60;;;3.03;;
78346;SDS011;67803;41.330;69.282;2024-03-23T11:54:42;11.50;;;2.83;;
78346;SDS011;67803;41.330;69.282;2024-03-23T11:57:12;7.00;;;3.08;;
78346;SDS011;67803;41.330;69.282;2024-03-23T11:59:43;9.32;;;3.38;;
78346;SDS011;67803;41.330;69.282;2024-03-23T12:02:14;6.93;;;2.85;;
78346;SDS011;67803;41.330;69.282;2024-03-23T12:04:45;4.97;;;2.47;;
78346;SDS011;67803;41.330;69.282;2024-03-23T12:07:16;9.05;;;2.60;;
78346;SDS011;67803;41.330;69.282;2024-03-23T12:10:03;7.35;;;2.63;;
78346;SDS011;67803;41.330;69.282;2024-03-23T12:12:34;9.82;;;2.85;;
78346;SDS011;67803;41.330;69.282;2024-03-23T12:15:05;6.57;;;3.08;;
78346;SDS011;67803;41.330;69.282;2024-03-23T12:17:36;11.73;;;3.78;;
78346;SDS011;67803;41.330;69.282;2024-03-23T12:20:06;14.68;;;5.10;;
78346;SDS011;67803;41.330;69.282;2024-03-23T12:22:37;12.55;;;3.95;;
78346;SDS011;67803;41.330;69.282;2024-03-23T12:25:09;11.73;;;3.78;;
78346;SDS011;67803;41.330;69.282;2024-03-23T12:27:40;16.75;;;4.65;;
78346;SDS011;67803;41.330;69.282;2024-03-23T12:30:10;10.07;;;4.22;;
78346;SDS011;67803;41.330;69.282;2024-03-23T12:32:41;7.38;;;3.75;;
78346;SDS011;67803;41.330;69.282;2024-03-23T12:35:12;13.02;;;4.47;;
78346;SDS011;67803;41.330;69.282;2024-03-23T12:37:43;14.95;;;4.80;;
78346;SDS011;67803;41.330;69.282;2024-03-23T12:40:13;8.43;;;3.97;;
78346;SDS011;67803;41.330;69.282;2024-03-23T12:42:44;9.25;;;3.60;;
78346;SDS011;67803;41.330;69.282;2024-03-23T12:45:15;9.63;;;3.83;;
78346;SDS011;67803;41.330;69.282;2024-03-23T12:47:46;12.25;;;4.15;;
78346;SDS011;67803;41.330;69.282;2024-03-23T12:50:16;8.52;;;4.25;;
78346;SDS011;67803;41.330;69.282;2024-03-23T12:52:47;10.93;;;3.97;;
78346;SDS011;67803;41.330;69.282;2024-03-23T12:55:17;34.72;;;6.07;;
78346;SDS011;67803;41.330;69.282;2024-03-23T12:57:48;17.85;;;4.82;;
78346;SDS011;67803;41.330;69.282;2024-03-23T13:00:19;8.30;;;4.40;;
78346;SDS011;67803;41.330;69.282;2024-03-23T13:02:51;8.93;;;4.60;;
78346;SDS011;67803;41.330;69.282;2024-03-23T13:05:21;9.63;;;4.90;;
78346;SDS011;67803;41.330;69.282;2024-03-23T13:07:52;11.88;;;4.65;;
78346;SDS011;67803;41.330;69.282;2024-03-23T13:10:22;13.32;;;4.38;;
78346;SDS011;67803;41.330;69.282;2024-03-23T13:12:53;11.98;;;5.00;;
78346;SDS011;67803;41.330;69.282;2024-03-23T13:15:24;11.30;;;4.38;;
78346;SDS011;67803;41.330;69.282;2024-03-23T13:17:54;14.85;;;5.03;;
78346;SDS011;67803;41.330;69.282;2024-03-23T13:20:25;19.00;;;5.70;;
78346;SDS011;67803;41.330;69.282;2024-03-23T13:22:56;14.55;;;5.30;;
78346;SDS011;67803;41.330;69.282;2024-03-23T13:25:27;13.18;;;4.93;;
78346;SDS011;67803;41.330;69.282;2024-03-23T13:27:57;9.18;;;4.82;;
78346;SDS011;67803;41.330;69.282;2024-03-23T13:30:28;15.57;;;5.45;;
78346;SDS011;67803;41.330;69.282;2024-03-23T13:32:59;76.88;;;9.50;;
78346;SDS011;67803;41.330;69.282;2024-03-23T13:35:29;16.55;;;5.45;;
78346;SDS011;67803;41.330;69.282;2024-03-23T13:38:00;15.82;;;5.40;;
78346;SDS011;67803;41.330;69.282;2024-03-23T13:40:30;16.80;;;5.38;;
78346;SDS011;67803;41.330;69.282;2024-03-23T13:43:01;12.75;;;5.85;;
78346;SDS011;67803;41.330;69.282;2024-03-23T13:45:31;14.30;;;5.57;;
78346;SDS011;67803;41.330;69.282;2024-03-23T13:48:02;18.77;;;6.75;;
78346;SDS011;67803;41.330;69.282;2024-03-23T13:50:33;15.68;;;6.38;;
78346;SDS011;67803;41.330;69.282;2024-03-23T13:53:04;13.35;;;6.35;;
78346;SDS011;67803;41.330;69.282;2024-03-23T13:55:36;12.27;;;6.10;;
78346;SDS011;67803;41.330;69.282;2024-03-23T13:58:07;18.98;;;8.32;;
78346;SDS011;67803;41.330;69.282;2024-03-23T14:00:41;13.32;;;6.07;;
78346;SDS011;67803;41.330;69.282;2024-03-23T14:03:14;11.15;;;6.85;;
78346;SDS011;67803;41.330;69.282;2024-03-23T14:05:45;25.42;;;7.45;;
78346;SDS011;67803;41.330;69.282;2024-03-23T14:08:17;14.38;;;6.85;;
78346;SDS011;67803;41.330;69.282;2024-03-23T14:10:47;13.10;;;6.95;;
78346;SDS011;67803;41.330;69.282;2024-03-23T14:13:18;15.45;;;7.50;;
78346;SDS011;67803;41.330;69.282;2024-03-23T14:15:52;16.73;;;8.20;;
78346;SDS011;67803;41.330;69.282;2024-03-23T14:18:23;18.60;;;9.55;;
78346;SDS011;67803;41.330;69.282;2024-03-23T14:20:56;19.75;;;10.32;;
78346;SDS011;67803;41.330;69.282;2024-03-23T14:23:30;30.40;;;10.20;;
78346;SDS011;67803;41.330;69.282;2024-03-23T14:26:04;29.92;;;13.43;;
78346;SDS011;67803;41.330;69.282;2024-03-23T14:28:34;26.77;;;11.77;;
78346;SDS011;67803;41.330;69.282;2024-03-23T14:31:05;40.15;;;14.07;;
78346;SDS011;67803;41.330;69.282;2024-03-23T14:33:40;28.08;;;11.20;;
78346;SDS011;67803;41.330;69.282;2024-03-23T14:36:16;39.22;;;13.70;;
78346;SDS011;67803;41.330;69.282;2024-03-23T14:38:50;39.28;;;15.57;;
78346;SDS011;67803;41.330;69.282;2024-03-23T14:41:20;27.75;;;11.80;;
78346;SDS011;67803;41.330;69.282;2024-03-23T14:43:51;27.45;;;11.43;;
78346;SDS011;67803;41.330;69.282;2024-03-23T14:46:24;29.60;;;12.88;;
78346;SDS011;67803;41.330;69.282;2024-03-23T14:48:54;28.75;;;13.07;;
78346;SDS011;67803;41.330;69.282;2024-03-23T14:51:25;30.52;;;14.55;;
78346;SDS011;67803;41.330;69.282;2024-03-23T14:53:56;26.17;;;14.63;;
78346;SDS011;67803;41.330;69.282;2024-03-23T14:56:28;30.17;;;16.48;;
78346;SDS011;67803;41.330;69.282;2024-03-23T14:58:58;35.25;;;17.45;;
78346;SDS011;67803;41.330;69.282;2024-03-23T15:01:29;41.00;;;17.27;;
78346;SDS011;67803;41.330;69.282;2024-03-23T15:04:00;36.08;;;16.98;;
78346;SDS011;67803;41.330;69.282;2024-03-23T15:06:30;37.97;;;18.25;;
78346;SDS011;67803;41.330;69.282;2024-03-23T15:09:01;34.40;;;17.45;;
78346;SDS011;67803;41.330;69.282;2024-03-23T15:11:31;41.20;;;15.73;;
78346;SDS011;67803;41.330;69.282;2024-03-23T15:14:02;40.47;;;17.73;;
78346;SDS011;67803;41.330;69.282;2024-03-23T15:16:33;29.52;;;16.52;;
78346;SDS011;67803;41.330;69.282;2024-03-23T15:19:03;29.17;;;15.00;;
78346;SDS011;67803;41.330;69.282;2024-03-23T15:21:36;27.60;;;14.90;;
78346;SDS011;67803;41.330;69.282;2024-03-23T15:24:07;36.58;;;14.23;;
78346;SDS011;67803;41.330;69.282;2024-03-23T15:26:41;21.73;;;13.10;;
78346;SDS011;67803;41.330;69.282;2024-03-23T15:29:12;20.27;;;12.18;;
78346;SDS011;67803;41.330;69.282;2024-03-23T15:31:46;27.95;;;12.93;;
78346;SDS011;67803;41.330;69.282;2024-03-23T15:34:17;21.52;;;11.73;;
78346;SDS011;67803;41.330;69.282;2024-03-23T15:36:49;25.50;;;11.48;;
78346;SDS011;67803;41.330;69.282;2024-03-23T15:39:22;23.55;;;11.32;;
78346;SDS011;67803;41.330;69.282;2024-03-23T15:41:53;21.25;;;10.30;;
78346;SDS011;67803;41.330;69.282;2024-03-23T15:44:26;20.67;;;10.52;;
78346;SDS011;67803;41.330;69.282;2024-03-23T15:46:56;18.70;;;10.55;;
78346;SDS011;67803;41.330;69.282;2024-03-23T15:49:27;21.17;;;11.15;;
78346;SDS011;67803;41.330;69.282;2024-03-23T15:51:57;34.03;;;11.93;;